sensor_id;sensor_type;location;lat;lon;timestamp;temperature;humidity
20487;DHT22;10402;49.012;8.370;2023-12-20T00:01:22;7.70;92.10
20487;DHT22;10402;49.012;8.370;2023-12-20T00:03:48;7.70;92.30
20487;DHT22;10402;49.012;8.370;2023-12-20T00:06:13;7.70;92.50
20487;DHT22;10402;49.012;8.370;2023-12-20T00:08:39;7.70;92.50
20487;DHT22;10402;49.012;8.370;2023-12-20T00:11:04;7.70;92.70
20487;DHT22;10402;49.012;8.370;2023-12-20T00:13:30;7.70;92.80
20487;DHT22;10402;49.012;8.370;2023-12-20T00:15:55;7.70;92.90
20487;DHT22;10402;49.012;8.370;2023-12-20T00:18:21;7.70;92.90
20487;DHT22;10402;49.012;8.370;2023-12-20T00:20:46;7.70;93.00
20487;DHT22;10402;49.012;8.370;2023-12-20T00:23:12;7.70;93.10
20487;DHT22;10402;49.012;8.370;2023-12-20T00:25:37;7.60;93.20
20487;DHT22;10402;49.012;8.370;2023-12-20T00:28:03;7.70;93.30
20487;DHT22;10402;49.012;8.370;2023-12-20T00:30:29;7.60;93.40
20487;DHT22;10402;49.012;8.370;2023-12-20T00:32:55;7.60;93.60
20487;DHT22;10402;49.012;8.370;2023-12-20T00:35:21;7.70;93.70
20487;DHT22;10402;49.012;8.370;2023-12-20T00:37:46;7.70;93.70
20487;DHT22;10402;49.012;8.370;2023-12-20T00:40:12;7.60;93.80
20487;DHT22;10402;49.012;8.370;2023-12-20T00:42:37;7.60;94.00
20487;DHT22;10402;49.012;8.370;2023-12-20T00:45:03;7.60;94.10
20487;DHT22;10402;49.012;8.370;2023-12-20T00:47:30;7.60;94.10
20487;DHT22;10402;49.012;8.370;2023-12-20T00:49:56;7.70;94.20
20487;DHT22;10402;49.012;8.370;2023-12-20T00:52:21;7.70;94.30
20487;DHT22;10402;49.012;8.370;2023-12-20T00:54:48;7.60;94.30
20487;DHT22;10402;49.012;8.370;2023-12-20T00:57:13;7.60;94.70
20487;DHT22;10402;49.012;8.370;2023-12-20T00:59:39;7.60;94.40
20487;DHT22;10402;49.012;8.370;2023-12-20T01:02:05;7.60;94.60
20487;DHT22;10402;49.012;8.370;2023-12-20T01:04:30;7.60;94.80
20487;DHT22;10402;49.012;8.370;2023-12-20T01:06:55;7.60;94.80
20487;DHT22;10402;49.012;8.370;2023-12-20T01:09:21;7.60;95.00
20487;DHT22;10402;49.012;8.370;2023-12-20T01:11:51;7.60;95.00
20487;DHT22;10402;49.012;8.370;2023-12-20T01:14:17;7.70;95.10
20487;DHT22;10402;49.012;8.370;2023-12-20T01:16:43;7.70;95.20
20487;DHT22;10402;49.012;8.370;2023-12-20T01:19:08;7.70;95.50
20487;DHT22;10402;49.012;8.370;2023-12-20T01:21:34;7.70;95.30
20487;DHT22;10402;49.012;8.370;2023-12-20T01:23:59;7.70;95.30
20487;DHT22;10402;49.012;8.370;2023-12-20T01:26:25;7.70;95.40
20487;DHT22;10402;49.012;8.370;2023-12-20T01:28:50;7.60;95.40
20487;DHT22;10402;49.012;8.370;2023-12-20T01:31:16;7.70;95.50
20487;DHT22;10402;49.012;8.370;2023-12-20T01:33:41;7.60;95.50
20487;DHT22;10402;49.012;8.370;2023-12-20T01:36:07;7.60;95.60
20487;DHT22;10402;49.012;8.370;2023-12-20T01:38:33;7.70;95.70
20487;DHT22;10402;49.012;8.370;2023-12-20T01:40:58;7.60;95.70
20487;DHT22;10402;49.012;8.370;2023-12-20T01:43:24;7.70;95.80
20487;DHT22;10402;49.012;8.370;2023-12-20T01:45:50;7.70;95.80
20487;DHT22;10402;49.012;8.370;2023-12-20T01:48:16;7.70;95.90
20487;DHT22;10402;49.012;8.370;2023-12-20T01:50:42;7.60;95.90
20487;DHT22;10402;49.012;8.370;2023-12-20T01:53:10;7.70;96.00
20487;DHT22;10402;49.012;8.370;2023-12-20T01:55:39;7.60;96.00
20487;DHT22;10402;49.012;8.370;2023-12-20T01:58:06;7.70;96.00
20487;DHT22;10402;49.012;8.370;2023-12-20T02:00:33;7.70;96.00
20487;DHT22;10402;49.012;8.370;2023-12-20T02:03:01;7.70;96.10
20487;DHT22;10402;49.012;8.370;2023-12-20T02:05:28;7.70;96.20
20487;DHT22;10402;49.012;8.370;2023-12-20T02:07:54;7.70;96.20
20487;DHT22;10402;49.012;8.370;2023-12-20T02:10:19;7.70;96.30
20487;DHT22;10402;49.012;8.370;2023-12-20T02:12:45;7.70;96.30
20487;DHT22;10402;49.012;8.370;2023-12-20T02:15:11;7.70;96.40
20487;DHT22;10402;49.012;8.370;2023-12-20T02:17:38;7.70;96.50
20487;DHT22;10402;49.012;8.370;2023-12-20T02:20:05;7.70;96.50
20487;DHT22;10402;49.012;8.370;2023-12-20T02:22:31;7.70;96.80
20487;DHT22;10402;49.012;8.370;2023-12-20T02:24:57;7.70;96.60
20487;DHT22;10402;49.012;8.370;2023-12-20T02:27:23;7.70;96.60
20487;DHT22;10402;49.012;8.370;2023-12-20T02:29:49;7.70;96.60
20487;DHT22;10402;49.012;8.370;2023-12-20T02:32:16;7.70;96.60
20487;DHT22;10402;49.012;8.370;2023-12-20T02:34:42;7.70;96.60
20487;DHT22;10402;49.012;8.370;2023-12-20T02:37:07;7.70;96.60
20487;DHT22;10402;49.012;8.370;2023-12-20T02:39:33;7.70;96.60
20487;DHT22;10402;49.012;8.370;2023-12-20T02:41:59;7.70;96.70
20487;DHT22;10402;49.012;8.370;2023-12-20T02:44:24;7.80;96.70
20487;DHT22;10402;49.012;8.370;2023-12-20T02:46:50;7.70;96.80
20487;DHT22;10402;49.012;8.370;2023-12-20T02:49:15;7.70;97.20
20487;DHT22;10402;49.012;8.370;2023-12-20T02:51:41;7.70;96.80
20487;DHT22;10402;49.012;8.370;2023-12-20T02:54:06;7.80;96.90
20487;DHT22;10402;49.012;8.370;2023-12-20T02:56:33;7.80;96.90
20487;DHT22;10402;49.012;8.370;2023-12-20T02:58:58;7.80;96.90
20487;DHT22;10402;49.012;8.370;2023-12-20T03:01:24;7.80;96.90
20487;DHT22;10402;49.012;8.370;2023-12-20T03:03:49;7.80;96.90
20487;DHT22;10402;49.012;8.370;2023-12-20T03:06:18;7.80;96.90
20487;DHT22;10402;49.012;8.370;2023-12-20T03:08:44;7.80;96.90
20487;DHT22;10402;49.012;8.370;2023-12-20T03:11:10;7.80;96.90
20487;DHT22;10402;49.012;8.370;2023-12-20T03:13:35;7.70;96.90
20487;DHT22;10402;49.012;8.370;2023-12-20T03:16:01;7.70;97.00
20487;DHT22;10402;49.012;8.370;2023-12-20T03:18:26;7.80;97.10
20487;DHT22;10402;49.012;8.370;2023-12-20T03:20:53;7.70;97.00
20487;DHT22;10402;49.012;8.370;2023-12-20T03:23:19;7.70;97.10
20487;DHT22;10402;49.012;8.370;2023-12-20T03:25:44;7.70;97.20
20487;DHT22;10402;49.012;8.370;2023-12-20T03:28:10;7.70;97.20
20487;DHT22;10402;49.012;8.370;2023-12-20T03:30:35;7.80;97.20
20487;DHT22;10402;49.012;8.370;2023-12-20T03:33:01;7.80;97.20
20487;DHT22;10402;49.012;8.370;2023-12-20T03:35:26;7.80;97.20
20487;DHT22;10402;49.012;8.370;2023-12-20T03:37:52;7.80;97.30
20487;DHT22;10402;49.012;8.370;2023-12-20T03:40:18;7.80;97.40
20487;DHT22;10402;49.012;8.370;2023-12-20T03:42:43;7.80;97.40
20487;DHT22;10402;49.012;8.370;2023-12-20T03:45:09;7.80;97.40
20487;DHT22;10402;49.012;8.370;2023-12-20T03:47:34;7.80;97.30
20487;DHT22;10402;49.012;8.370;2023-12-20T03:50:00;7.80;97.30
20487;DHT22;10402;49.012;8.370;2023-12-20T03:52:25;7.80;97.30
20487;DHT22;10402;49.012;8.370;2023-12-20T03:54:51;7.80;97.30
20487;DHT22;10402;49.012;8.370;2023-12-20T03:57:16;7.80;97.40
20487;DHT22;10402;49.012;8.370;2023-12-20T03:59:42;7.80;97.40
20487;DHT22;10402;49.012;8.370;2023-12-20T04:02:07;7.80;97.40
20487;DHT22;10402;49.012;8.370;2023-12-20T04:04:33;7.80;97.40
20487;DHT22;10402;49.012;8.370;2023-12-20T04:06:58;7.80;97.40
20487;DHT22;10402;49.012;8.370;2023-12-20T04:09:24;7.80;97.40
20487;DHT22;10402;49.012;8.370;2023-12-20T04:11:49;7.80;97.40
20487;DHT22;10402;49.012;8.370;2023-12-20T04:14:15;7.90;97.50
20487;DHT22;10402;49.012;8.370;2023-12-20T04:16:40;7.80;97.40
20487;DHT22;10402;49.012;8.370;2023-12-20T04:19:06;7.80;97.40
20487;DHT22;10402;49.012;8.370;2023-12-20T04:21:31;7.80;97.40
20487;DHT22;10402;49.012;8.370;2023-12-20T04:23:57;7.80;97.50
20487;DHT22;10402;49.012;8.370;2023-12-20T04:26:22;7.90;97.50
20487;DHT22;10402;49.012;8.370;2023-12-20T04:28:48;7.90;97.50
20487;DHT22;10402;49.012;8.370;2023-12-20T04:31:13;7.90;97.50
20487;DHT22;10402;49.012;8.370;2023-12-20T04:33:39;7.90;97.50
20487;DHT22;10402;49.012;8.370;2023-12-20T04:36:04;7.90;97.50
20487;DHT22;10402;49.012;8.370;2023-12-20T04:38:30;7.90;97.50
20487;DHT22;10402;49.012;8.370;2023-12-20T04:40:55;7.90;97.50
20487;DHT22;10402;49.012;8.370;2023-12-20T04:43:21;7.90;97.40
20487;DHT22;10402;49.012;8.370;2023-12-20T04:45:47;7.90;97.40
20487;DHT22;10402;49.012;8.370;2023-12-20T04:48:12;7.90;97.40
20487;DHT22;10402;49.012;8.370;2023-12-20T04:50:38;7.90;97.40
20487;DHT22;10402;49.012;8.370;2023-12-20T04:53:03;7.90;97.40
20487;DHT22;10402;49.012;8.370;2023-12-20T04:55:29;7.90;97.40
20487;DHT22;10402;49.012;8.370;2023-12-20T04:57:55;7.90;97.50
20487;DHT22;10402;49.012;8.370;2023-12-20T05:00:21;7.90;97.50
20487;DHT22;10402;49.012;8.370;2023-12-20T05:02:47;8.00;97.40
20487;DHT22;10402;49.012;8.370;2023-12-20T05:05:12;7.90;97.40
20487;DHT22;10402;49.012;8.370;2023-12-20T05:07:40;8.00;97.50
20487;DHT22;10402;49.012;8.370;2023-12-20T05:10:06;8.00;97.50
20487;DHT22;10402;49.012;8.370;2023-12-20T05:12:33;8.00;97.50
20487;DHT22;10402;49.012;8.370;2023-12-20T05:14:59;7.90;97.50
20487;DHT22;10402;49.012;8.370;2023-12-20T05:17:25;7.90;97.50
20487;DHT22;10402;49.012;8.370;2023-12-20T05:19:50;8.00;97.50
20487;DHT22;10402;49.012;8.370;2023-12-20T05:22:16;7.90;97.50
20487;DHT22;10402;49.012;8.370;2023-12-20T05:24:42;7.90;97.50
20487;DHT22;10402;49.012;8.370;2023-12-20T05:27:08;7.90;97.60
20487;DHT22;10402;49.012;8.370;2023-12-20T05:29:33;7.90;97.50
20487;DHT22;10402;49.012;8.370;2023-12-20T05:31:59;7.90;97.50
20487;DHT22;10402;49.012;8.370;2023-12-20T05:34:24;7.90;97.50
20487;DHT22;10402;49.012;8.370;2023-12-20T05:36:50;8.00;97.60
20487;DHT22;10402;49.012;8.370;2023-12-20T05:39:15;8.00;97.60
20487;DHT22;10402;49.012;8.370;2023-12-20T05:41:41;8.00;97.60
20487;DHT22;10402;49.012;8.370;2023-12-20T05:44:07;7.90;97.60
20487;DHT22;10402;49.012;8.370;2023-12-20T05:46:32;8.00;97.70
20487;DHT22;10402;49.012;8.370;2023-12-20T05:48:58;7.90;97.60
20487;DHT22;10402;49.012;8.370;2023-12-20T05:51:23;8.00;97.70
20487;DHT22;10402;49.012;8.370;2023-12-20T05:53:49;8.00;97.60
20487;DHT22;10402;49.012;8.370;2023-12-20T05:56:15;8.00;97.60
20487;DHT22;10402;49.012;8.370;2023-12-20T05:58:41;8.00;97.70
20487;DHT22;10402;49.012;8.370;2023-12-20T06:01:06;8.00;97.70
20487;DHT22;10402;49.012;8.370;2023-12-20T06:03:33;8.00;97.70
20487;DHT22;10402;49.012;8.370;2023-12-20T06:06:03;8.00;97.80
20487;DHT22;10402;49.012;8.370;2023-12-20T06:08:29;8.00;97.70
20487;DHT22;10402;49.012;8.370;2023-12-20T06:10:54;8.00;97.70
20487;DHT22;10402;49.012;8.370;2023-12-20T06:13:20;8.00;97.70
20487;DHT22;10402;49.012;8.370;2023-12-20T06:15:45;8.00;97.70
20487;DHT22;10402;49.012;8.370;2023-12-20T06:18:11;8.00;97.70
20487;DHT22;10402;49.012;8.370;2023-12-20T06:20:36;8.00;97.60
20487;DHT22;10402;49.012;8.370;2023-12-20T06:23:02;8.10;97.70
20487;DHT22;10402;49.012;8.370;2023-12-20T06:25:28;8.00;97.70
20487;DHT22;10402;49.012;8.370;2023-12-20T06:27:53;8.00;97.80
20487;DHT22;10402;49.012;8.370;2023-12-20T06:30:19;8.10;97.80
20487;DHT22;10402;49.012;8.370;2023-12-20T06:32:44;8.10;97.70
20487;DHT22;10402;49.012;8.370;2023-12-20T06:35:12;8.10;97.70
20487;DHT22;10402;49.012;8.370;2023-12-20T06:37:37;8.10;97.70
20487;DHT22;10402;49.012;8.370;2023-12-20T06:40:03;8.10;97.60
20487;DHT22;10402;49.012;8.370;2023-12-20T06:42:29;8.10;97.60
20487;DHT22;10402;49.012;8.370;2023-12-20T06:44:55;8.10;97.60
20487;DHT22;10402;49.012;8.370;2023-12-20T06:47:20;8.10;97.60
20487;DHT22;10402;49.012;8.370;2023-12-20T06:49:46;8.10;97.60
20487;DHT22;10402;49.012;8.370;2023-12-20T06:52:11;8.10;97.70
20487;DHT22;10402;49.012;8.370;2023-12-20T06:54:37;8.10;97.70
20487;DHT22;10402;49.012;8.370;2023-12-20T06:57:02;8.10;97.70
20487;DHT22;10402;49.012;8.370;2023-12-20T06:59:29;8.10;97.70
20487;DHT22;10402;49.012;8.370;2023-12-20T07:01:55;8.10;97.70
20487;DHT22;10402;49.012;8.370;2023-12-20T07:04:20;8.10;97.60
20487;DHT22;10402;49.012;8.370;2023-12-20T07:06:48;8.00;97.60
20487;DHT22;10402;49.012;8.370;2023-12-20T07:09:13;8.00;97.60
20487;DHT22;10402;49.012;8.370;2023-12-20T07:11:39;8.00;97.60
20487;DHT22;10402;49.012;8.370;2023-12-20T07:14:05;8.00;97.60
20487;DHT22;10402;49.012;8.370;2023-12-20T07:16:31;8.00;97.60
20487;DHT22;10402;49.012;8.370;2023-12-20T07:18:56;7.90;97.60
20487;DHT22;10402;49.012;8.370;2023-12-20T07:21:22;7.90;97.50
20487;DHT22;10402;49.012;8.370;2023-12-20T07:23:48;7.90;97.60
20487;DHT22;10402;49.012;8.370;2023-12-20T07:26:14;7.90;97.70
20487;DHT22;10402;49.012;8.370;2023-12-20T07:28:40;7.90;97.70
20487;DHT22;10402;49.012;8.370;2023-12-20T07:31:06;7.90;97.60
20487;DHT22;10402;49.012;8.370;2023-12-20T07:33:31;7.90;97.70
20487;DHT22;10402;49.012;8.370;2023-12-20T07:35:57;7.90;97.60
20487;DHT22;10402;49.012;8.370;2023-12-20T07:38:22;7.80;97.60
20487;DHT22;10402;49.012;8.370;2023-12-20T07:40:48;7.90;97.70
20487;DHT22;10402;49.012;8.370;2023-12-20T07:43:13;7.90;97.60
20487;DHT22;10402;49.012;8.370;2023-12-20T07:45:39;7.90;97.60
20487;DHT22;10402;49.012;8.370;2023-12-20T07:48:06;7.80;97.60
20487;DHT22;10402;49.012;8.370;2023-12-20T07:50:32;7.80;97.60
20487;DHT22;10402;49.012;8.370;2023-12-20T07:52:58;7.80;97.60
20487;DHT22;10402;49.012;8.370;2023-12-20T07:55:25;7.80;97.60
20487;DHT22;10402;49.012;8.370;2023-12-20T07:57:50;7.80;97.60
20487;DHT22;10402;49.012;8.370;2023-12-20T08:00:17;7.80;97.60
20487;DHT22;10402;49.012;8.370;2023-12-20T08:02:42;7.80;97.60
20487;DHT22;10402;49.012;8.370;2023-12-20T08:05:08;7.80;97.60
20487;DHT22;10402;49.012;8.370;2023-12-20T08:07:34;7.70;97.60
20487;DHT22;10402;49.012;8.370;2023-12-20T08:09:59;7.70;97.60
20487;DHT22;10402;49.012;8.370;2023-12-20T08:12:25;7.70;97.50
20487;DHT22;10402;49.012;8.370;2023-12-20T08:14:53;7.70;97.50
20487;DHT22;10402;49.012;8.370;2023-12-20T08:17:19;7.70;97.40
20487;DHT22;10402;49.012;8.370;2023-12-20T08:19:45;7.70;97.40
20487;DHT22;10402;49.012;8.370;2023-12-20T08:22:11;7.70;97.40
20487;DHT22;10402;49.012;8.370;2023-12-20T08:24:36;7.70;97.40
20487;DHT22;10402;49.012;8.370;2023-12-20T08:27:02;7.70;97.80
20487;DHT22;10402;49.012;8.370;2023-12-20T08:29:28;7.70;97.40
20487;DHT22;10402;49.012;8.370;2023-12-20T08:31:54;7.70;97.40
20487;DHT22;10402;49.012;8.370;2023-12-20T08:34:20;7.70;97.30
20487;DHT22;10402;49.012;8.370;2023-12-20T08:36:45;7.70;97.30
20487;DHT22;10402;49.012;8.370;2023-12-20T08:39:11;7.70;97.20
20487;DHT22;10402;49.012;8.370;2023-12-20T08:41:37;7.70;97.50
20487;DHT22;10402;49.012;8.370;2023-12-20T08:44:02;7.80;97.20
20487;DHT22;10402;49.012;8.370;2023-12-20T08:46:28;7.80;97.10
20487;DHT22;10402;49.012;8.370;2023-12-20T08:48:54;7.80;96.90
20487;DHT22;10402;49.012;8.370;2023-12-20T08:51:20;7.80;96.90
20487;DHT22;10402;49.012;8.370;2023-12-20T08:53:48;7.80;96.80
20487;DHT22;10402;49.012;8.370;2023-12-20T08:56:14;7.80;96.80
20487;DHT22;10402;49.012;8.370;2023-12-20T08:58:40;7.80;96.80
20487;DHT22;10402;49.012;8.370;2023-12-20T09:01:05;7.80;96.80
20487;DHT22;10402;49.012;8.370;2023-12-20T09:03:31;7.80;96.70
20487;DHT22;10402;49.012;8.370;2023-12-20T09:05:56;7.80;96.60
20487;DHT22;10402;49.012;8.370;2023-12-20T09:08:22;7.80;96.60
20487;DHT22;10402;49.012;8.370;2023-12-20T09:10:47;7.80;96.60
20487;DHT22;10402;49.012;8.370;2023-12-20T09:13:13;7.80;96.60
20487;DHT22;10402;49.012;8.370;2023-12-20T09:15:38;7.80;96.60
20487;DHT22;10402;49.012;8.370;2023-12-20T09:18:04;7.90;96.60
20487;DHT22;10402;49.012;8.370;2023-12-20T09:20:29;7.90;96.60
20487;DHT22;10402;49.012;8.370;2023-12-20T09:22:55;7.90;96.50
20487;DHT22;10402;49.012;8.370;2023-12-20T09:25:21;7.90;96.40
20487;DHT22;10402;49.012;8.370;2023-12-20T09:27:47;8.00;96.40
20487;DHT22;10402;49.012;8.370;2023-12-20T09:30:13;8.00;96.20
20487;DHT22;10402;49.012;8.370;2023-12-20T09:32:39;8.00;96.20
20487;DHT22;10402;49.012;8.370;2023-12-20T09:35:05;8.00;96.20
20487;DHT22;10402;49.012;8.370;2023-12-20T09:37:31;8.00;96.00
20487;DHT22;10402;49.012;8.370;2023-12-20T09:39:57;8.00;95.90
20487;DHT22;10402;49.012;8.370;2023-12-20T09:42:48;8.00;95.80
20487;DHT22;10402;49.012;8.370;2023-12-20T09:45:15;8.00;95.60
20487;DHT22;10402;49.012;8.370;2023-12-20T09:47:43;8.00;95.40
20487;DHT22;10402;49.012;8.370;2023-12-20T09:50:09;8.00;95.50
20487;DHT22;10402;49.012;8.370;2023-12-20T09:52:36;8.00;95.50
20487;DHT22;10402;49.012;8.370;2023-12-20T09:55:04;8.00;95.40
20487;DHT22;10402;49.012;8.370;2023-12-20T09:57:31;8.10;95.30
20487;DHT22;10402;49.012;8.370;2023-12-20T09:59:57;8.10;95.00
20487;DHT22;10402;49.012;8.370;2023-12-20T10:02:25;8.10;95.00
20487;DHT22;10402;49.012;8.370;2023-12-20T10:04:55;8.10;94.80
20487;DHT22;10402;49.012;8.370;2023-12-20T10:07:21;8.10;94.70
20487;DHT22;10402;49.012;8.370;2023-12-20T10:09:47;8.20;94.70
20487;DHT22;10402;49.012;8.370;2023-12-20T10:12:13;8.20;94.50
20487;DHT22;10402;49.012;8.370;2023-12-20T10:14:39;8.30;94.90
20487;DHT22;10402;49.012;8.370;2023-12-20T10:17:05;8.30;94.40
20487;DHT22;10402;49.012;8.370;2023-12-20T10:19:32;8.30;94.10
20487;DHT22;10402;49.012;8.370;2023-12-20T10:22:01;8.30;93.90
20487;DHT22;10402;49.012;8.370;2023-12-20T10:24:29;8.30;93.80
20487;DHT22;10402;49.012;8.370;2023-12-20T10:27:05;8.30;93.60
20487;DHT22;10402;49.012;8.370;2023-12-20T10:29:37;8.30;93.50
20487;DHT22;10402;49.012;8.370;2023-12-20T10:32:24;8.30;93.40
20487;DHT22;10402;49.012;8.370;2023-12-20T10:34:54;8.30;93.30
20487;DHT22;10402;49.012;8.370;2023-12-20T10:37:20;8.30;93.20
20487;DHT22;10402;49.012;8.370;2023-12-20T10:39:53;8.20;93.10
20487;DHT22;10402;49.012;8.370;2023-12-20T10:42:22;8.20;93.20
20487;DHT22;10402;49.012;8.370;2023-12-20T10:44:51;8.30;93.30
20487;DHT22;10402;49.012;8.370;2023-12-20T10:47:17;8.30;93.30
20487;DHT22;10402;49.012;8.370;2023-12-20T10:49:43;8.30;93.10
20487;DHT22;10402;49.012;8.370;2023-12-20T10:52:11;8.30;93.10
20487;DHT22;10402;49.012;8.370;2023-12-20T10:54:37;8.30;93.10
20487;DHT22;10402;49.012;8.370;2023-12-20T10:57:05;8.30;92.90
20487;DHT22;10402;49.012;8.370;2023-12-20T10:59:33;8.40;92.90
20487;DHT22;10402;49.012;8.370;2023-12-20T11:01:59;8.40;92.80
20487;DHT22;10402;49.012;8.370;2023-12-20T11:04:58;8.30;92.80
20487;DHT22;10402;49.012;8.370;2023-12-20T11:07:46;8.40;92.80
20487;DHT22;10402;49.012;8.370;2023-12-20T11:10:23;8.50;92.70
20487;DHT22;10402;49.012;8.370;2023-12-20T11:13:08;8.50;92.40
20487;DHT22;10402;49.012;8.370;2023-12-20T11:15:36;8.50;92.40
20487;DHT22;10402;49.012;8.370;2023-12-20T11:18:03;8.60;92.40
20487;DHT22;10402;49.012;8.370;2023-12-20T11:20:39;8.60;92.20
20487;DHT22;10402;49.012;8.370;2023-12-20T11:23:06;8.60;92.10
20487;DHT22;10402;49.012;8.370;2023-12-20T11:25:51;8.60;92.00
20487;DHT22;10402;49.012;8.370;2023-12-20T11:28:21;8.60;92.00
20487;DHT22;10402;49.012;8.370;2023-12-20T11:30:47;8.60;91.70
20487;DHT22;10402;49.012;8.370;2023-12-20T11:33:14;8.60;91.70
20487;DHT22;10402;49.012;8.370;2023-12-20T11:35:41;8.60;91.70
20487;DHT22;10402;49.012;8.370;2023-12-20T11:38:10;8.60;91.90
20487;DHT22;10402;49.012;8.370;2023-12-20T11:40:36;8.60;91.40
20487;DHT22;10402;49.012;8.370;2023-12-20T11:43:02;8.60;91.40
20487;DHT22;10402;49.012;8.370;2023-12-20T11:45:28;8.60;91.40
20487;DHT22;10402;49.012;8.370;2023-12-20T11:47:54;8.60;91.40
20487;DHT22;10402;49.012;8.370;2023-12-20T11:50:23;8.60;91.50
20487;DHT22;10402;49.012;8.370;2023-12-20T11:52:49;8.60;91.60
20487;DHT22;10402;49.012;8.370;2023-12-20T11:55:15;8.60;91.50
20487;DHT22;10402;49.012;8.370;2023-12-20T11:57:42;8.60;91.70
20487;DHT22;10402;49.012;8.370;2023-12-20T12:00:08;8.60;91.80
20487;DHT22;10402;49.012;8.370;2023-12-20T12:02:34;8.70;91.80
20487;DHT22;10402;49.012;8.370;2023-12-20T12:04:59;8.70;91.70
20487;DHT22;10402;49.012;8.370;2023-12-20T12:07:25;8.70;91.70
20487;DHT22;10402;49.012;8.370;2023-12-20T12:09:51;8.60;91.70
20487;DHT22;10402;49.012;8.370;2023-12-20T12:12:17;8.70;91.70
20487;DHT22;10402;49.012;8.370;2023-12-20T12:14:45;8.70;91.70
20487;DHT22;10402;49.012;8.370;2023-12-20T12:17:11;8.70;91.60
20487;DHT22;10402;49.012;8.370;2023-12-20T12:19:38;8.70;91.60
20487;DHT22;10402;49.012;8.370;2023-12-20T12:22:08;8.70;91.50
20487;DHT22;10402;49.012;8.370;2023-12-20T12:24:38;8.80;91.50
20487;DHT22;10402;49.012;8.370;2023-12-20T12:27:06;8.80;91.40
20487;DHT22;10402;49.012;8.370;2023-12-20T12:29:31;8.80;91.40
20487;DHT22;10402;49.012;8.370;2023-12-20T12:31:57;8.70;91.30
20487;DHT22;10402;49.012;8.370;2023-12-20T12:34:23;8.70;91.40
20487;DHT22;10402;49.012;8.370;2023-12-20T12:36:48;8.70;91.50
20487;DHT22;10402;49.012;8.370;2023-12-20T12:39:15;8.80;91.40
20487;DHT22;10402;49.012;8.370;2023-12-20T12:41:41;8.70;91.30
20487;DHT22;10402;49.012;8.370;2023-12-20T12:44:06;8.80;91.30
20487;DHT22;10402;49.012;8.370;2023-12-20T12:46:32;8.70;91.20
20487;DHT22;10402;49.012;8.370;2023-12-20T12:48:58;8.70;91.10
20487;DHT22;10402;49.012;8.370;2023-12-20T12:51:23;8.70;91.00
20487;DHT22;10402;49.012;8.370;2023-12-20T12:53:50;8.70;90.80
20487;DHT22;10402;49.012;8.370;2023-12-20T12:56:16;8.70;90.90
20487;DHT22;10402;49.012;8.370;2023-12-20T12:58:42;8.80;90.90
20487;DHT22;10402;49.012;8.370;2023-12-20T13:01:07;8.80;90.60
20487;DHT22;10402;49.012;8.370;2023-12-20T13:03:33;8.80;90.60
20487;DHT22;10402;49.012;8.370;2023-12-20T13:05:59;8.80;90.60
20487;DHT22;10402;49.012;8.370;2023-12-20T13:08:25;8.80;90.60
20487;DHT22;10402;49.012;8.370;2023-12-20T13:10:51;8.80;90.90
20487;DHT22;10402;49.012;8.370;2023-12-20T13:13:16;8.70;90.70
20487;DHT22;10402;49.012;8.370;2023-12-20T13:15:42;8.70;90.70
20487;DHT22;10402;49.012;8.370;2023-12-20T13:18:07;8.70;90.90
20487;DHT22;10402;49.012;8.370;2023-12-20T13:20:33;8.70;90.60
20487;DHT22;10402;49.012;8.370;2023-12-20T13:22:59;8.70;90.50
20487;DHT22;10402;49.012;8.370;2023-12-20T13:25:24;8.70;90.50
20487;DHT22;10402;49.012;8.370;2023-12-20T13:27:50;8.70;90.50
20487;DHT22;10402;49.012;8.370;2023-12-20T13:30:16;8.70;90.90
20487;DHT22;10402;49.012;8.370;2023-12-20T13:32:42;8.70;90.50
20487;DHT22;10402;49.012;8.370;2023-12-20T13:35:08;8.70;90.50
20487;DHT22;10402;49.012;8.370;2023-12-20T13:37:34;8.70;90.40
20487;DHT22;10402;49.012;8.370;2023-12-20T13:40:00;8.60;90.50
20487;DHT22;10402;49.012;8.370;2023-12-20T13:42:25;8.60;90.50
20487;DHT22;10402;49.012;8.370;2023-12-20T13:44:53;8.70;90.50
20487;DHT22;10402;49.012;8.370;2023-12-20T13:47:18;8.70;90.50
20487;DHT22;10402;49.012;8.370;2023-12-20T13:49:45;8.60;90.70
20487;DHT22;10402;49.012;8.370;2023-12-20T13:52:10;8.60;90.70
20487;DHT22;10402;49.012;8.370;2023-12-20T13:54:37;8.60;90.80
20487;DHT22;10402;49.012;8.370;2023-12-20T13:57:03;8.60;90.70
20487;DHT22;10402;49.012;8.370;2023-12-20T13:59:28;8.60;90.70
20487;DHT22;10402;49.012;8.370;2023-12-20T14:01:54;8.70;90.70
20487;DHT22;10402;49.012;8.370;2023-12-20T14:04:20;8.70;90.60
20487;DHT22;10402;49.012;8.370;2023-12-20T14:06:47;8.70;90.60
20487;DHT22;10402;49.012;8.370;2023-12-20T14:09:12;8.70;90.50
20487;DHT22;10402;49.012;8.370;2023-12-20T14:11:38;8.70;90.50
20487;DHT22;10402;49.012;8.370;2023-12-20T14:14:07;8.70;90.50
20487;DHT22;10402;49.012;8.370;2023-12-20T14:16:33;8.70;90.50
20487;DHT22;10402;49.012;8.370;2023-12-20T14:18:59;8.70;90.60
20487;DHT22;10402;49.012;8.370;2023-12-20T14:21:24;8.60;90.60
20487;DHT22;10402;49.012;8.370;2023-12-20T14:23:50;8.60;90.70
20487;DHT22;10402;49.012;8.370;2023-12-20T14:26:17;8.60;90.90
20487;DHT22;10402;49.012;8.370;2023-12-20T14:28:43;8.60;91.00
20487;DHT22;10402;49.012;8.370;2023-12-20T14:31:09;8.60;91.10
20487;DHT22;10402;49.012;8.370;2023-12-20T14:33:35;8.60;91.20
20487;DHT22;10402;49.012;8.370;2023-12-20T14:36:03;8.60;91.10
20487;DHT22;10402;49.012;8.370;2023-12-20T14:38:30;8.60;91.40
20487;DHT22;10402;49.012;8.370;2023-12-20T14:40:56;8.60;91.00
20487;DHT22;10402;49.012;8.370;2023-12-20T14:43:23;8.60;91.00
20487;DHT22;10402;49.012;8.370;2023-12-20T14:45:48;8.60;91.10
20487;DHT22;10402;49.012;8.370;2023-12-20T14:48:14;8.60;91.00
20487;DHT22;10402;49.012;8.370;2023-12-20T14:50:39;8.60;91.10
20487;DHT22;10402;49.012;8.370;2023-12-20T14:53:08;8.60;91.00
20487;DHT22;10402;49.012;8.370;2023-12-20T14:55:33;8.60;91.10
20487;DHT22;10402;49.012;8.370;2023-12-20T14:57:59;8.60;91.10
20487;DHT22;10402;49.012;8.370;2023-12-20T15:00:26;8.70;91.10
20487;DHT22;10402;49.012;8.370;2023-12-20T15:02:51;8.70;91.10
20487;DHT22;10402;49.012;8.370;2023-12-20T15:05:17;8.70;91.00
20487;DHT22;10402;49.012;8.370;2023-12-20T15:07:43;8.70;91.00
20487;DHT22;10402;49.012;8.370;2023-12-20T15:10:09;8.70;90.90
20487;DHT22;10402;49.012;8.370;2023-12-20T15:12:34;8.60;90.90
20487;DHT22;10402;49.012;8.370;2023-12-20T15:15:00;8.60;91.00
20487;DHT22;10402;49.012;8.370;2023-12-20T15:17:26;8.60;91.10
20487;DHT22;10402;49.012;8.370;2023-12-20T15:19:52;8.60;90.90
20487;DHT22;10402;49.012;8.370;2023-12-20T15:22:18;8.60;90.80
20487;DHT22;10402;49.012;8.370;2023-12-20T15:24:43;8.60;90.90
20487;DHT22;10402;49.012;8.370;2023-12-20T15:27:11;8.60;90.90
20487;DHT22;10402;49.012;8.370;2023-12-20T15:29:37;8.60;90.80
20487;DHT22;10402;49.012;8.370;2023-12-20T15:32:03;8.60;90.90
20487;DHT22;10402;49.012;8.370;2023-12-20T15:34:31;8.50;90.80
20487;DHT22;10402;49.012;8.370;2023-12-20T15:36:57;8.50;90.70
20487;DHT22;10402;49.012;8.370;2023-12-20T15:39:22;8.50;90.70